createdAt,value
2022-09-15T00:00:57.915Z,88
2022-09-15T00:02:02.391Z,87
2022-09-15T00:03:06.620Z,88
2022-09-15T00:04:10.873Z,87
2022-09-15T00:05:15.122Z,87
2022-09-15T00:06:19.651Z,87
2022-09-15T00:07:24.035Z,88
2022-09-15T00:08:28.538Z,87
2022-09-15T00:09:33.047Z,87
2022-09-15T00:10:37.351Z,88
2022-09-15T00:11:51.666Z,88
2022-09-15T00:12:56.027Z,87
2022-09-15T00:14:00.310Z,87
2022-09-15T00:15:04.675Z,87
2022-09-15T00:16:09.125Z,87
2022-09-15T00:17:13.322Z,87
2022-09-15T00:18:17.547Z,88
2022-09-15T00:19:22.023Z,88
2022-09-15T00:20:26.311Z,87
2022-09-15T00:21:30.619Z,88
2022-09-15T00:22:34.707Z,87
2022-09-15T00:23:39.152Z,88
2022-09-15T00:24:44.188Z,87
2022-09-15T00:25:48.627Z,88
2022-09-15T00:26:53.047Z,87
2022-09-15T00:27:57.867Z,87
2022-09-15T00:29:02.283Z,88
2022-09-15T00:30:07.003Z,88
2022-09-15T00:31:11.881Z,89
2022-09-15T00:32:16.451Z,89
2022-09-15T00:33:20.638Z,88
2022-09-15T00:34:24.922Z,89
2022-09-15T00:35:29.447Z,88
2022-09-15T00:36:33.771Z,88
2022-09-15T00:37:38.130Z,87
2022-09-15T00:38:42.306Z,87
2022-09-15T00:39:46.747Z,87
2022-09-15T00:41:54.306Z,88
2022-09-15T00:42:58.630Z,88
2022-09-15T00:44:02.822Z,88
2022-09-15T00:45:07.098Z,87
2022-09-15T00:46:12.024Z,89
2022-09-15T00:47:19.468Z,88
2022-09-15T00:48:20.562Z,88
2022-09-15T00:49:24.862Z,88
2022-09-15T00:50:29.126Z,89
2022-09-15T00:51:33.390Z,88
2022-09-15T00:52:37.722Z,88
2022-09-15T00:53:44.650Z,89
2022-09-15T00:54:48.930Z,89
2022-09-15T00:56:01.222Z,88
2022-09-15T00:57:05.885Z,89
2022-09-15T00:58:10.194Z,88
2022-09-15T01:00:44.902Z,88
2022-09-15T01:01:52.104Z,88
2022-09-15T01:02:56.470Z,87
2022-09-15T01:04:00.842Z,88
2022-09-15T01:05:05.390Z,87
2022-09-15T01:06:09.915Z,87
2022-09-15T01:07:19.338Z,88
2022-09-15T01:08:31.402Z,87
2022-09-15T01:09:35.802Z,88
2022-09-15T01:10:42.786Z,88
2022-09-15T01:12:50.534Z,88
2022-09-15T01:13:54.710Z,89
2022-09-15T01:14:59.130Z,88
2022-09-15T01:16:03.544Z,88
2022-09-15T01:17:17.780Z,88
2022-09-15T01:18:22.137Z,88
2022-09-15T01:19:31.496Z,89
2022-09-15T01:20:46.000Z,89
2022-09-15T01:21:56.871Z,89
2022-09-15T01:23:02.589Z,89
2022-09-15T01:24:12.718Z,89
2022-09-15T01:25:27.226Z,88
2022-09-15T01:26:41.310Z,89
2022-09-15T01:27:50.586Z,88
2022-09-15T01:29:05.110Z,88
2022-09-15T01:30:14.594Z,89
2022-09-15T01:31:21.890Z,89
2022-09-15T01:32:26.238Z,88
2022-09-15T01:33:38.515Z,88
2022-09-15T01:34:45.562Z,88
2022-09-15T01:35:55.465Z,87
2022-09-15T01:37:09.980Z,87
2022-09-15T01:38:14.538Z,87
2022-09-15T01:39:28.862Z,87
2022-09-15T01:40:33.195Z,89
2022-09-15T01:41:39.990Z,89
2022-09-15T01:42:49.379Z,89
2022-09-15T01:43:53.622Z,88
2022-09-15T01:45:03.014Z,89
2022-09-15T01:46:07.500Z,89
2022-09-15T01:47:12.274Z,89
2022-09-15T01:48:16.546Z,88
2022-09-15T01:49:20.934Z,88
2022-09-15T01:50:27.962Z,88
2022-09-15T01:51:35.454Z,88
2022-09-15T01:52:39.626Z,89
2022-09-15T01:53:44.031Z,88
2022-09-15T01:54:48.647Z,88
2022-09-15T01:55:53.063Z,88
2022-09-15T01:56:57.490Z,88
2022-09-15T01:58:01.902Z,90
2022-09-15T01:59:06.222Z,89
2022-09-15T02:00:10.395Z,89
2022-09-15T02:01:14.780Z,89
2022-09-15T02:02:27.027Z,88
2022-09-15T02:03:39.450Z,88
2022-09-15T02:04:49.407Z,88
2022-09-15T02:05:53.649Z,87
2022-09-15T02:08:06.509Z,87
2022-09-15T02:09:18.830Z,88
2022-09-15T02:10:23.074Z,88
2022-09-15T02:11:32.970Z,88
2022-09-15T02:12:37.330Z,88
2022-09-15T02:13:41.787Z,89
2022-09-15T02:14:56.115Z,88
2022-09-15T02:16:03.419Z,88
2022-09-15T02:17:13.616Z,87
2022-09-15T02:18:17.922Z,88
2022-09-15T02:19:22.126Z,88
2022-09-15T02:20:34.505Z,89
2022-09-15T02:21:41.686Z,88
2022-09-15T02:22:51.294Z,89
2022-09-15T02:23:55.638Z,89
2022-09-15T02:25:00.643Z,88
2022-09-15T02:26:07.931Z,89
2022-09-15T02:27:12.298Z,88
2022-09-15T02:28:16.698Z,89
2022-09-15T02:29:21.119Z,89
2022-09-15T02:30:25.530Z,88
2022-09-15T02:31:29.821Z,88
2022-09-15T02:33:37.543Z,89
2022-09-15T02:34:41.905Z,89
2022-09-15T02:35:46.582Z,89
2022-09-15T02:36:50.754Z,89
2022-09-15T02:37:55.105Z,89
2022-09-15T02:38:59.241Z,89
2022-09-15T02:40:03.592Z,89
2022-09-15T02:41:07.769Z,89
2022-09-15T02:42:12.009Z,89
2022-09-15T02:43:16.457Z,89
2022-09-15T02:44:20.945Z,90
2022-09-15T02:45:25.281Z,89
2022-09-15T02:46:29.529Z,89
2022-09-15T02:47:33.948Z,89
2022-09-15T02:48:38.204Z,89
2022-09-15T02:49:42.501Z,88
2022-09-15T02:50:46.822Z,89
2022-09-15T02:51:51.169Z,88
2022-09-15T02:52:55.431Z,89
2022-09-15T02:53:59.573Z,89
2022-09-15T02:55:04.029Z,89
2022-09-15T02:56:09.090Z,89
2022-09-15T02:57:13.350Z,90
2022-09-15T02:58:17.652Z,88
2022-09-15T02:59:22.014Z,89
2022-09-15T03:00:26.493Z,89
2022-09-15T03:01:30.911Z,89
2022-09-15T03:02:35.229Z,90
2022-09-15T03:03:42.824Z,89
2022-09-15T03:04:43.962Z,89
2022-09-15T03:05:48.269Z,89
2022-09-15T03:06:52.845Z,89
2022-09-15T03:07:57.154Z,90
2022-09-15T03:09:01.350Z,89
2022-09-15T03:10:05.650Z,89
2022-09-15T03:11:09.870Z,89
2022-09-15T03:12:14.269Z,90
2022-09-15T03:13:18.726Z,89
2022-09-15T03:14:23.429Z,89
2022-09-15T03:15:28.081Z,89
2022-09-15T03:16:32.462Z,89
2022-09-15T03:17:36.709Z,89
2022-09-15T03:18:40.949Z,89
2022-09-15T03:19:45.496Z,89
2022-09-15T03:20:49.670Z,88
2022-09-15T03:21:53.889Z,87
2022-09-15T03:22:58.485Z,89
2022-09-15T03:24:02.741Z,88
2022-09-15T03:25:06.913Z,88
2022-09-15T03:26:11.289Z,89
2022-09-15T03:27:15.731Z,87
2022-09-15T03:28:20.083Z,87
2022-09-15T03:29:24.361Z,87
2022-09-15T03:30:28.629Z,88
2022-09-15T03:31:33.026Z,88
2022-09-15T03:32:37.301Z,88
2022-09-15T03:33:41.649Z,89
2022-09-15T03:34:45.885Z,88
2022-09-15T03:35:50.390Z,89
2022-09-15T03:36:54.889Z,88
2022-09-15T03:37:59.529Z,88
2022-09-15T03:39:03.781Z,89
2022-09-15T03:40:08.026Z,88
2022-09-15T03:41:12.179Z,88
2022-09-15T03:42:16.769Z,89
2022-09-15T03:43:21.370Z,89
2022-09-15T03:44:25.549Z,88
2022-09-15T03:45:29.937Z,89
2022-09-15T03:46:34.282Z,89
2022-09-15T03:47:38.557Z,89
2022-09-15T03:48:43.113Z,89
2022-09-15T03:49:47.633Z,89
2022-09-15T03:50:52.100Z,89
2022-09-15T03:51:56.601Z,89
2022-09-15T03:53:01.290Z,89
2022-09-15T03:54:05.582Z,89
2022-09-15T03:55:10.051Z,90
2022-09-15T03:56:14.421Z,89
2022-09-15T03:57:23.841Z,89
2022-09-15T03:58:30.718Z,89
2022-09-15T03:59:32.515Z,89
2022-09-15T04:00:36.990Z,89
2022-09-15T04:01:41.233Z,88
2022-09-15T04:02:45.401Z,88
2022-09-15T04:03:51.267Z,89
2022-09-15T04:04:54.242Z,89
2022-09-15T04:05:58.577Z,88
2022-09-15T04:07:02.877Z,88
2022-09-15T04:08:07.054Z,88
2022-09-15T04:09:11.421Z,88
2022-09-15T04:10:15.553Z,89
2022-09-15T04:11:20.149Z,89
2022-09-15T04:12:24.490Z,89
2022-09-15T04:13:28.938Z,89
2022-09-15T04:14:33.122Z,89
2022-09-15T04:16:41.128Z,89
2022-09-15T04:17:45.253Z,90
2022-09-15T04:18:49.722Z,89
2022-09-15T04:19:54.285Z,88
2022-09-15T04:20:58.638Z,89
2022-09-15T04:23:07.401Z,88
2022-09-15T04:24:11.849Z,89
2022-09-15T04:25:16.214Z,88
2022-09-15T04:26:20.622Z,89
2022-09-15T04:27:28.153Z,88
2022-09-15T04:28:32.769Z,88
2022-09-15T04:29:37.102Z,88
2022-09-15T04:30:41.285Z,88
2022-09-15T04:31:45.596Z,88
2022-09-15T04:32:49.701Z,87
2022-09-15T04:33:53.961Z,88
2022-09-15T04:34:58.221Z,88
2022-09-15T04:36:02.457Z,88
2022-09-15T04:37:07.033Z,88
2022-09-15T04:38:11.403Z,88
2022-09-15T04:39:15.709Z,88
2022-09-15T04:40:20.136Z,88
2022-09-15T04:41:24.327Z,88
2022-09-15T04:42:28.557Z,88
2022-09-15T04:43:32.881Z,88
2022-09-15T04:44:37.249Z,88
2022-09-15T04:45:41.566Z,88
2022-09-15T04:46:45.859Z,89
2022-09-15T04:47:50.017Z,88
2022-09-15T04:48:54.190Z,88
2022-09-15T04:51:01.937Z,88
2022-09-15T04:52:09.698Z,89
2022-09-15T04:53:11.262Z,89
2022-09-15T04:54:15.918Z,89
2022-09-15T04:55:20.556Z,89
2022-09-15T04:56:28.477Z,89
2022-09-15T04:57:33.098Z,89
2022-09-15T04:58:38.159Z,89
2022-09-15T04:59:42.534Z,89
2022-09-15T05:00:46.917Z,88
2022-09-15T05:01:50.987Z,89
2022-09-15T05:02:55.205Z,89
2022-09-15T05:03:59.453Z,89
2022-09-15T05:05:03.904Z,88
2022-09-15T05:06:08.730Z,88
2022-09-15T05:07:13.077Z,87
2022-09-15T05:08:17.386Z,89
2022-09-15T05:09:21.646Z,88
2022-09-15T05:10:25.822Z,88
2022-09-15T05:11:30.115Z,88
2022-09-15T05:12:34.423Z,89
2022-09-15T05:13:38.757Z,88
2022-09-15T05:14:43.300Z,88
2022-09-15T05:16:51.237Z,88
2022-09-15T05:17:55.664Z,88
2022-09-15T05:18:59.841Z,88
2022-09-15T05:20:04.133Z,88
2022-09-15T05:21:08.562Z,88
2022-09-15T05:22:12.813Z,88
2022-09-15T05:23:17.052Z,88
2022-09-15T05:24:21.620Z,87
2022-09-15T05:25:25.932Z,88
2022-09-15T05:26:30.169Z,88
2022-09-15T05:27:34.621Z,88
2022-09-15T05:28:39.745Z,88
2022-09-15T05:29:44.224Z,88
2022-09-15T05:31:54.999Z,88
2022-09-15T05:32:59.593Z,88
2022-09-15T05:34:03.931Z,88
2022-09-15T05:35:08.237Z,88
2022-09-15T05:36:12.740Z,88
2022-09-15T05:37:17.081Z,89
2022-09-15T05:38:21.761Z,88
2022-09-15T05:39:26.485Z,87
2022-09-15T05:40:31.046Z,87
2022-09-15T05:41:35.213Z,87
2022-09-15T05:42:39.682Z,87
2022-09-15T05:43:44.585Z,87
2022-09-15T05:44:48.873Z,88
2022-09-15T05:45:53.417Z,87
2022-09-15T05:46:58.734Z,86
2022-09-15T05:48:03.048Z,86
2022-09-15T05:49:07.472Z,86
2022-09-15T05:50:12.142Z,87
2022-09-15T05:51:16.390Z,86
2022-09-15T05:52:20.672Z,86
2022-09-15T05:53:24.937Z,86
2022-09-15T05:54:29.185Z,86
2022-09-15T05:55:33.685Z,86
2022-09-15T05:56:37.977Z,86
2022-09-15T05:57:42.617Z,87
2022-09-15T05:58:47.166Z,86
2022-09-15T05:59:51.953Z,86
2022-09-15T06:00:56.136Z,86
2022-09-15T06:02:05.657Z,86
2022-09-15T06:04:13.781Z,86
2022-09-15T06:05:18.129Z,86
2022-09-15T06:06:23.229Z,86
2022-09-15T06:07:27.541Z,87
2022-09-15T06:08:32.165Z,87
2022-09-15T06:09:36.381Z,86
2022-09-15T06:10:40.721Z,87
2022-09-15T06:11:44.998Z,87
2022-09-15T06:12:49.253Z,87
2022-09-15T06:13:53.885Z,86
2022-09-15T06:15:03.072Z,86
2022-09-15T06:16:08.488Z,88
2022-09-15T06:17:15.741Z,87
2022-09-15T06:18:20.005Z,87
2022-09-15T06:19:24.249Z,87
2022-09-15T06:20:28.489Z,86
2022-09-15T06:21:33.045Z,86
2022-09-15T06:22:38.355Z,86
2022-09-15T06:23:44.999Z,86
2022-09-15T06:24:48.581Z,87
2022-09-15T06:25:53.930Z,88
2022-09-15T06:26:58.315Z,87
2022-09-15T06:28:03.827Z,86
2022-09-15T06:29:08.323Z,86
2022-09-15T06:30:12.675Z,86
2022-09-15T06:31:17.219Z,86
2022-09-15T06:32:22.255Z,86
2022-09-15T06:33:27.394Z,87
2022-09-15T06:36:06.196Z,86
2022-09-15T06:37:13.227Z,85
2022-09-15T06:38:17.642Z,85
2022-09-15T06:39:23.106Z,86
2022-09-15T06:40:27.452Z,85
2022-09-15T06:41:47.350Z,85
2022-09-15T06:42:36.395Z,86
2022-09-15T06:43:40.924Z,86
2022-09-15T06:44:46.052Z,85
2022-09-15T06:45:51.369Z,85
2022-09-15T06:46:55.661Z,85
2022-09-15T06:48:23.204Z,85
2022-09-15T06:49:08.559Z,86
2022-09-15T06:50:12.815Z,85
2022-09-15T06:51:17.663Z,85
2022-09-15T06:52:22.487Z,85
2022-09-15T06:53:26.732Z,85
2022-09-15T06:54:30.983Z,84
2022-09-15T06:55:35.667Z,84
2022-09-15T06:56:39.959Z,84
2022-09-15T06:57:44.604Z,84
2022-09-15T06:58:49.003Z,84
2022-09-15T06:59:53.420Z,84
2022-09-15T07:00:58.239Z,84
2022-09-15T07:02:05.026Z,84
2022-09-15T07:03:07.495Z,83
2022-09-15T07:04:12.095Z,83
2022-09-15T07:05:16.451Z,84
2022-09-15T07:06:21.050Z,86
2022-09-15T07:07:25.303Z,85
2022-09-15T07:08:29.955Z,84
2022-09-15T07:09:35.562Z,84
2022-09-15T07:10:40.807Z,85
2022-09-15T07:11:45.087Z,84
2022-09-15T07:12:49.684Z,84
2022-09-15T07:13:53.939Z,84
2022-09-15T07:14:58.463Z,85
2022-09-15T07:16:02.816Z,85
2022-09-15T07:17:07.135Z,86
2022-09-15T07:18:11.482Z,85
2022-09-15T07:19:16.315Z,86
2022-09-15T07:20:20.554Z,84
2022-09-15T07:21:24.894Z,85
2022-09-15T07:22:29.382Z,84
2022-09-15T07:23:34.002Z,84
2022-09-15T07:24:38.382Z,84
2022-09-15T07:25:42.698Z,85
2022-09-15T07:26:47.058Z,85
2022-09-15T07:27:51.508Z,84
2022-09-15T07:28:56.072Z,84
2022-09-15T07:30:00.919Z,84
2022-09-15T07:31:05.698Z,84
2022-09-15T07:32:10.282Z,85
2022-09-15T07:33:14.700Z,85
2022-09-15T07:34:18.947Z,84
2022-09-15T07:35:23.578Z,84
2022-09-15T07:36:27.935Z,84
2022-09-15T07:37:32.191Z,84
2022-09-15T07:39:40.506Z,84
2022-09-15T07:40:44.703Z,83
2022-09-15T07:41:49.514Z,83
2022-09-15T07:43:57.773Z,83
2022-09-15T07:45:02.725Z,83
2022-09-15T07:46:07.428Z,83
2022-09-15T07:47:12.309Z,83
2022-09-15T07:48:16.966Z,83
2022-09-15T07:49:21.314Z,83
2022-09-15T07:50:25.874Z,83
2022-09-15T07:51:30.150Z,83
2022-09-15T07:52:35.198Z,84
2022-09-15T07:53:40.367Z,83
2022-09-15T07:54:44.662Z,83
2022-09-15T07:55:49.387Z,82
2022-09-15T07:56:53.647Z,83
2022-09-15T07:57:57.890Z,84
2022-09-15T07:59:02.218Z,83
2022-09-15T08:00:06.457Z,83
2022-09-15T08:01:11.392Z,83
2022-09-15T08:02:15.870Z,83
2022-09-15T08:03:20.402Z,83
2022-09-15T08:04:24.951Z,83
2022-09-15T08:05:29.419Z,83
2022-09-15T08:06:33.894Z,83
2022-09-15T08:08:41.910Z,83
2022-09-15T08:10:50.254Z,82
2022-09-15T08:11:54.954Z,82
2022-09-15T08:13:03.231Z,83
2022-09-15T08:14:09.350Z,83
2022-09-15T08:15:13.598Z,83
2022-09-15T08:16:18.189Z,83
2022-09-15T08:17:22.576Z,83
2022-09-15T08:18:26.902Z,83
2022-09-15T08:19:31.148Z,84
2022-09-15T08:20:35.579Z,83
2022-09-15T08:21:40.195Z,83
2022-09-15T08:22:44.635Z,83
2022-09-15T08:23:49.335Z,82
2022-09-15T08:24:56.979Z,82
2022-09-15T08:26:01.226Z,83
2022-09-15T08:27:09.754Z,83
2022-09-15T08:28:14.023Z,83
2022-09-15T08:29:18.337Z,84
2022-09-15T08:30:22.578Z,83
2022-09-15T08:31:27.264Z,83
2022-09-15T08:32:31.653Z,83
2022-09-15T08:33:36.028Z,83
2022-09-15T08:34:40.508Z,82
2022-09-15T08:35:44.701Z,82
2022-09-15T08:36:48.937Z,83
2022-09-15T08:37:54.053Z,82
2022-09-15T08:38:58.293Z,82
2022-09-15T08:40:03.092Z,83
2022-09-15T08:41:07.569Z,82
2022-09-15T08:42:11.956Z,83
2022-09-15T08:43:16.397Z,83
2022-09-15T08:44:20.752Z,83
2022-09-15T08:45:30.310Z,84
2022-09-15T08:46:34.644Z,83
2022-09-15T08:47:41.944Z,83
2022-09-15T08:48:46.527Z,82
2022-09-15T08:49:52.588Z,83
2022-09-15T08:50:56.428Z,82
2022-09-15T08:52:00.701Z,82
2022-09-15T08:53:06.065Z,82
2022-09-15T08:54:18.526Z,82
2022-09-15T08:55:23.181Z,82
2022-09-15T08:56:37.777Z,82
2022-09-15T08:57:42.993Z,83
2022-09-15T08:58:47.280Z,82
2022-09-15T08:59:51.826Z,83
2022-09-15T09:00:56.170Z,82
2022-09-15T09:03:17.145Z,82
2022-09-15T09:04:27.061Z,82
2022-09-15T09:05:39.708Z,82
2022-09-15T09:06:52.010Z,83
2022-09-15T09:08:00.277Z,82
2022-09-15T09:09:10.629Z,82
2022-09-15T09:10:15.349Z,82
2022-09-15T09:11:27.258Z,82
2022-09-15T09:12:41.645Z,83
2022-09-15T09:13:55.057Z,83
2022-09-15T09:15:02.413Z,82
2022-09-15T09:16:16.983Z,82
2022-09-15T09:17:31.513Z,82
2022-09-15T09:18:46.850Z,82
2022-09-15T09:19:59.305Z,82
2022-09-15T09:21:11.170Z,82
2022-09-15T09:22:25.854Z,82
2022-09-15T09:23:36.154Z,82
2022-09-15T09:24:45.542Z,82
2022-09-15T09:25:53.001Z,82
2022-09-15T09:26:57.322Z,82
2022-09-15T09:28:01.724Z,82
2022-09-15T09:29:06.035Z,82
2022-09-15T09:30:13.056Z,82
2022-09-15T09:31:17.561Z,82
2022-09-15T09:32:22.065Z,82
2022-09-15T09:33:26.240Z,82
2022-09-15T09:34:30.564Z,82
2022-09-15T09:35:37.717Z,82
2022-09-15T09:36:44.864Z,82
2022-09-15T09:37:59.154Z,82
2022-09-15T09:39:03.469Z,82
2022-09-15T09:40:07.732Z,84
2022-09-15T09:41:14.905Z,83
2022-09-15T09:42:19.119Z,83
2022-09-15T09:43:23.433Z,83
2022-09-15T09:44:27.977Z,83
2022-09-15T09:45:36.180Z,82
2022-09-15T09:46:40.918Z,83
2022-09-15T09:47:45.563Z,82
2022-09-15T09:48:49.820Z,82
2022-09-15T09:49:57.097Z,83
2022-09-15T09:51:01.633Z,82
2022-09-15T09:52:07.373Z,82
2022-09-15T09:53:11.625Z,83
2022-09-15T09:54:26.576Z,82
2022-09-15T09:55:31.192Z,83
2022-09-15T09:57:40.752Z,82
2022-09-15T09:58:44.346Z,82
2022-09-15T09:59:48.672Z,82
2022-09-15T10:00:53.172Z,82
2022-09-15T10:01:57.822Z,82
2022-09-15T10:03:12.290Z,82
2022-09-15T10:04:16.531Z,82
2022-09-15T10:05:20.878Z,82
2022-09-15T10:06:25.176Z,82
2022-09-15T10:07:29.562Z,82
2022-09-15T10:08:33.918Z,82
2022-09-15T10:09:38.097Z,82
2022-09-15T10:10:42.410Z,82
2022-09-15T10:11:54.550Z,82
2022-09-15T10:13:01.846Z,82
2022-09-15T10:14:06.032Z,82
2022-09-15T10:15:15.538Z,82
2022-09-15T10:16:23.005Z,83
2022-09-15T10:17:27.200Z,82
2022-09-15T10:18:36.780Z,82
2022-09-15T10:19:41.014Z,82
2022-09-15T10:20:50.325Z,82
2022-09-15T10:21:54.637Z,82
2022-09-15T10:22:59.327Z,81
2022-09-15T10:24:03.665Z,81
2022-09-15T10:25:18.113Z,82
2022-09-15T10:26:22.354Z,82
2022-09-15T10:27:32.707Z,82
2022-09-15T10:28:36.926Z,82
2022-09-15T10:29:41.347Z,82
2022-09-15T10:30:45.604Z,82
2022-09-15T10:32:00.335Z,82
2022-09-15T10:33:14.792Z,82
2022-09-15T10:34:24.282Z,82
2022-09-15T10:35:28.702Z,82
2022-09-15T10:36:34.086Z,82
2022-09-15T10:37:39.027Z,82
2022-09-15T10:38:46.321Z,82
2022-09-15T10:39:50.684Z,82
2022-09-15T10:40:57.954Z,82
2022-09-15T10:42:12.466Z,82
2022-09-15T10:43:16.762Z,82
2022-09-15T10:44:28.934Z,82
2022-09-15T10:45:39.420Z,82
2022-09-15T10:46:46.429Z,82
2022-09-15T10:48:02.406Z,82
2022-09-15T10:49:16.866Z,83
2022-09-15T10:50:26.413Z,83
2022-09-15T10:51:30.714Z,83
2022-09-15T10:52:45.291Z,82
2022-09-15T10:53:57.414Z,82
2022-09-15T10:55:07.181Z,82
2022-09-15T10:56:17.663Z,82
2022-09-15T10:58:42.143Z,82
2022-09-15T10:59:55.841Z,82
2022-09-15T11:01:10.343Z,82
2022-09-15T11:02:24.875Z,82
2022-09-15T11:03:37.162Z,82
2022-09-15T11:04:48.465Z,83
2022-09-15T11:06:00.828Z,83
2022-09-15T11:07:13.037Z,82
2022-09-15T11:09:25.981Z,82
2022-09-15T11:10:35.262Z,83
2022-09-15T11:11:49.662Z,83
2022-09-15T11:13:01.669Z,82
2022-09-15T11:14:11.885Z,82
2022-09-15T11:15:26.466Z,82
2022-09-15T11:16:40.896Z,82
2022-09-15T11:17:56.508Z,82
2022-09-15T11:19:09.535Z,82
2022-09-15T11:20:16.822Z,82
2022-09-15T11:21:31.324Z,82
2022-09-15T11:22:35.657Z,82
2022-09-15T11:23:45.303Z,82
2022-09-15T11:24:55.352Z,82
2022-09-15T11:27:08.584Z,81
2022-09-15T11:28:21.088Z,82
2022-09-15T11:29:25.377Z,82
2022-09-15T11:30:35.597Z,82
2022-09-15T11:31:39.973Z,82
2022-09-15T11:32:44.561Z,82
2022-09-15T11:33:51.774Z,81
2022-09-15T11:34:59.248Z,81
2022-09-15T11:36:06.353Z,82
2022-09-15T11:37:10.855Z,81
2022-09-15T11:38:18.393Z,81
2022-09-15T11:39:33.404Z,82
2022-09-15T11:40:37.757Z,82
2022-09-15T11:41:47.134Z,82
2022-09-15T11:42:54.377Z,82
2022-09-15T11:44:01.904Z,81
2022-09-15T11:45:14.377Z,82
2022-09-15T11:46:18.985Z,82
2022-09-15T11:47:26.828Z,82
2022-09-15T11:48:31.369Z,82
2022-09-15T11:49:40.940Z,82
2022-09-15T11:50:53.212Z,82
2022-09-15T11:51:57.816Z,82
2022-09-15T11:53:02.095Z,82
2022-09-15T11:54:12.125Z,82
2022-09-15T11:56:40.172Z,82
2022-09-15T11:57:47.436Z,82
2022-09-15T11:58:51.669Z,82
2022-09-15T12:00:06.049Z,82
2022-09-15T12:01:14.749Z,82
2022-09-15T12:02:22.454Z,82
2022-09-15T12:03:27.256Z,82
2022-09-15T12:04:31.531Z,82
2022-09-15T12:05:35.960Z,82
2022-09-15T12:06:44.891Z,82
2022-09-15T12:07:49.805Z,81
2022-09-15T12:08:54.204Z,82
2022-09-15T12:09:59.189Z,82
2022-09-15T12:11:06.280Z,82
2022-09-15T12:12:15.649Z,82
2022-09-15T12:13:20.421Z,82
2022-09-15T12:14:25.773Z,82
2022-09-15T12:15:36.225Z,82
2022-09-15T12:16:40.357Z,82
2022-09-15T12:17:44.669Z,82
2022-09-15T12:18:51.668Z,82
2022-09-15T12:19:58.657Z,82
2022-09-15T12:21:02.982Z,82
2022-09-15T12:22:17.519Z,81
2022-09-15T12:23:27.801Z,81
2022-09-15T12:24:35.228Z,81
2022-09-15T12:25:42.413Z,81
2022-09-15T12:26:57.136Z,82
2022-09-15T12:28:01.741Z,81
2022-09-15T12:29:13.981Z,82
2022-09-15T12:30:26.885Z,82
2022-09-15T12:31:38.925Z,81
2022-09-15T12:32:43.134Z,81
2022-09-15T12:33:47.669Z,81
2022-09-15T12:35:02.297Z,81
2022-09-15T12:36:11.777Z,81
2022-09-15T12:37:26.278Z,81
2022-09-15T12:38:40.706Z,82
2022-09-15T12:39:45.352Z,81
2022-09-15T12:40:49.442Z,82
2022-09-15T12:41:56.359Z,82
2022-09-15T12:43:00.630Z,82
2022-09-15T12:44:05.305Z,82
2022-09-15T12:45:18.102Z,81
2022-09-15T12:46:27.622Z,81
2022-09-15T12:47:32.053Z,81
2022-09-15T12:48:36.517Z,81
2022-09-15T12:49:41.570Z,81
2022-09-15T12:50:45.974Z,82
2022-09-15T12:51:53.558Z,81
2022-09-15T12:52:57.907Z,82
2022-09-15T12:54:12.622Z,81
2022-09-15T12:56:23.166Z,81
2022-09-15T12:57:27.514Z,81
2022-09-15T12:58:31.718Z,81
2022-09-15T12:59:41.210Z,81
2022-09-15T13:01:07.045Z,81
2022-09-15T13:01:50.621Z,81
2022-09-15T13:02:55.374Z,81
2022-09-15T13:04:00.242Z,81
2022-09-15T13:05:05.087Z,81
2022-09-15T13:06:09.350Z,81
2022-09-15T13:07:19.519Z,81
2022-09-15T13:09:30.191Z,81
2022-09-15T13:10:34.467Z,81
2022-09-15T13:11:38.950Z,81
2022-09-15T13:12:43.347Z,81
2022-09-15T13:13:47.767Z,81
2022-09-15T13:14:59.973Z,81
2022-09-15T13:16:04.487Z,81
2022-09-15T13:17:08.713Z,81
2022-09-15T13:18:18.113Z,81
2022-09-15T13:19:22.353Z,81
2022-09-15T13:20:32.097Z,81
2022-09-15T13:21:36.411Z,81
2022-09-15T13:22:40.649Z,81
2022-09-15T13:23:45.312Z,81
2022-09-15T13:24:49.806Z,81
2022-09-15T13:26:04.321Z,81
2022-09-15T13:27:08.585Z,81
2022-09-15T13:28:13.058Z,81
2022-09-15T13:29:17.707Z,81
2022-09-15T13:30:22.490Z,82
2022-09-15T13:31:31.953Z,81
2022-09-15T13:32:44.161Z,81
2022-09-15T13:35:16.447Z,81
2022-09-15T13:38:42.160Z,81
2022-09-15T13:39:56.442Z,81
2022-09-15T13:41:08.640Z,82
2022-09-15T13:42:20.601Z,82
2022-09-15T13:43:38.671Z,82
2022-09-15T13:44:46.804Z,81
2022-09-15T13:46:01.169Z,82
2022-09-15T13:47:08.104Z,82
2022-09-15T13:48:15.032Z,82
2022-09-15T13:49:24.419Z,82
2022-09-15T13:50:36.452Z,82
2022-09-15T13:52:44.245Z,82
2022-09-15T13:54:51.945Z,82
2022-09-15T13:56:06.669Z,82
2022-09-15T13:57:11.067Z,82
2022-09-15T13:59:20.547Z,81
2022-09-15T14:00:25.272Z,82
2022-09-15T14:01:34.731Z,82
2022-09-15T14:02:42.105Z,82
2022-09-15T14:03:46.876Z,82
2022-09-15T14:04:51.142Z,82
2022-09-15T14:05:55.434Z,82
2022-09-15T14:07:00.710Z,82
2022-09-15T14:08:04.084Z,82
2022-09-15T14:09:08.365Z,82
2022-09-15T14:10:18.834Z,82
2022-09-15T14:11:23.481Z,82
2022-09-15T14:12:30.996Z,82
2022-09-15T14:13:35.417Z,82
2022-09-15T14:14:39.762Z,82
2022-09-15T14:15:49.620Z,81
2022-09-15T14:17:01.626Z,81
2022-09-15T14:18:06.000Z,81
2022-09-15T14:19:18.408Z,81
2022-09-15T14:20:30.733Z,81
2022-09-15T14:21:34.972Z,81
2022-09-15T14:22:39.109Z,82
2022-09-15T14:23:43.353Z,82
2022-09-15T14:24:47.605Z,82
2022-09-15T14:25:52.034Z,81
2022-09-15T14:26:56.341Z,81
2022-09-15T14:28:00.620Z,82
2022-09-15T14:29:04.878Z,83
2022-09-15T14:30:09.250Z,82
2022-09-15T14:31:13.928Z,82
2022-09-15T14:32:18.265Z,82
2022-09-15T14:33:22.526Z,82
2022-09-15T14:34:27.257Z,83
2022-09-15T14:35:31.577Z,82
2022-09-15T14:36:35.893Z,82
2022-09-15T14:37:40.151Z,82
2022-09-15T14:38:47.258Z,82
2022-09-15T14:40:01.785Z,82
2022-09-15T14:41:06.017Z,82
2022-09-15T14:42:10.451Z,82
2022-09-15T14:43:19.372Z,82
2022-09-15T14:46:00.727Z,82
2022-09-15T14:46:43.433Z,82
2022-09-15T14:47:47.777Z,82
2022-09-15T14:48:59.878Z,82
2022-09-15T14:50:09.261Z,81
2022-09-15T14:51:19.587Z,81
2022-09-15T14:52:24.218Z,81
2022-09-15T14:53:28.801Z,81
2022-09-15T14:54:33.274Z,81
2022-09-15T14:55:37.557Z,81
2022-09-15T14:56:52.086Z,82
2022-09-15T14:57:56.476Z,82
2022-09-15T14:59:03.174Z,82
2022-09-15T15:00:07.508Z,82
2022-09-15T15:01:13.208Z,81
2022-09-15T15:02:23.490Z,82
2022-09-15T15:03:32.969Z,82
2022-09-15T15:04:42.365Z,82
2022-09-15T15:05:46.640Z,82
2022-09-15T15:06:59.641Z,82
2022-09-15T15:08:08.217Z,82
2022-09-15T15:09:12.997Z,82
2022-09-15T15:10:17.425Z,82
2022-09-15T15:11:24.800Z,82
2022-09-15T15:12:29.136Z,82
2022-09-15T15:14:45.509Z,82
2022-09-15T15:15:50.022Z,82
2022-09-15T15:16:54.796Z,82
2022-09-15T15:17:58.994Z,82
2022-09-15T15:19:03.365Z,82
2022-09-15T15:20:07.942Z,82
2022-09-15T15:21:12.369Z,82
2022-09-15T15:22:26.833Z,82
2022-09-15T15:23:31.109Z,82
2022-09-15T15:24:35.465Z,82
2022-09-15T15:25:45.973Z,82
2022-09-15T15:26:50.406Z,82
2022-09-15T15:27:55.161Z,82
2022-09-15T15:29:00.095Z,81
2022-09-15T15:30:04.385Z,82
2022-09-15T15:31:19.289Z,83
2022-09-15T15:32:23.889Z,82
2022-09-15T15:33:28.461Z,82
2022-09-15T15:34:32.805Z,82
2022-09-15T15:35:37.591Z,82
2022-09-15T15:36:42.008Z,82
2022-09-15T15:37:46.953Z,83
2022-09-15T15:38:52.203Z,82
2022-09-15T15:39:56.960Z,82
2022-09-15T15:41:05.859Z,82
2022-09-15T15:42:10.628Z,81
2022-09-15T15:43:15.431Z,81
2022-09-15T15:44:22.647Z,81
2022-09-15T15:45:28.771Z,82
2022-09-15T15:46:36.399Z,81
2022-09-15T15:47:46.359Z,81
2022-09-15T15:48:50.903Z,81
2022-09-15T15:50:12.128Z,82
2022-09-15T15:51:10.809Z,81
2022-09-15T15:52:15.259Z,82
2022-09-15T15:53:19.575Z,83
2022-09-15T15:54:23.948Z,82
2022-09-15T15:55:28.543Z,82
2022-09-15T15:56:41.967Z,81
2022-09-15T15:57:46.304Z,81
2022-09-15T15:58:50.651Z,81
2022-09-15T16:00:58.588Z,81
2022-09-15T16:02:02.987Z,82
2022-09-15T16:03:07.758Z,82
2022-09-15T16:04:12.027Z,82
2022-09-15T16:05:16.589Z,82
2022-09-15T16:06:23.071Z,81
2022-09-15T16:07:31.191Z,81
2022-09-15T16:08:33.054Z,81
2022-09-15T16:09:40.699Z,81
2022-09-15T16:10:45.183Z,81
2022-09-15T16:11:49.711Z,82
2022-09-15T16:12:54.190Z,81
2022-09-15T16:13:58.668Z,81
2022-09-15T16:15:03.168Z,81
2022-09-15T16:16:15.499Z,81
2022-09-15T16:17:19.826Z,81
2022-09-15T16:18:24.556Z,81
2022-09-15T16:19:28.845Z,81
2022-09-15T16:20:33.103Z,82